sensor_id;sensor_type;location;lat;lon;timestamp;P1;durP1;ratioP1;P2;durP2;ratioP2
1682;SDS011;13252;53.596;10.060;2022-12-11T00:01:48;10.20;;;7.50;;
1682;SDS011;13252;53.596;10.060;2022-12-11T00:04:16;9.43;;;6.47;;
1682;SDS011;13252;53.596;10.060;2022-12-11T00:06:45;13.43;;;8.47;;
1682;SDS011;13252;53.596;10.060;2022-12-11T00:09:15;12.97;;;7.70;;
1682;SDS011;13252;53.596;10.060;2022-12-11T00:11:43;11.13;;;7.70;;
1682;SDS011;13252;53.596;10.060;2022-12-11T00:14:11;11.27;;;6.97;;
1682;SDS011;13252;53.596;10.060;2022-12-11T00:16:40;11.00;;;7.17;;
1682;SDS011;13252;53.596;10.060;2022-12-11T00:19:07;11.57;;;7.67;;
1682;SDS011;13252;53.596;10.060;2022-12-11T00:21:35;11.57;;;7.47;;
1682;SDS011;13252;53.596;10.060;2022-12-11T00:24:05;16.63;;;8.53;;
1682;SDS011;13252;53.596;10.060;2022-12-11T00:26:33;12.57;;;8.87;;
1682;SDS011;13252;53.596;10.060;2022-12-11T00:29:00;11.73;;;7.83;;
1682;SDS011;13252;53.596;10.060;2022-12-11T00:31:29;10.70;;;8.37;;
1682;SDS011;13252;53.596;10.060;2022-12-11T00:33:56;13.50;;;8.37;;
1682;SDS011;13252;53.596;10.060;2022-12-11T00:36:25;15.53;;;8.90;;
1682;SDS011;13252;53.596;10.060;2022-12-11T00:38:52;10.80;;;8.07;;
1682;SDS011;13252;53.596;10.060;2022-12-11T00:41:22;14.13;;;8.50;;
1682;SDS011;13252;53.596;10.060;2022-12-11T00:43:50;15.40;;;9.00;;
1682;SDS011;13252;53.596;10.060;2022-12-11T00:46:18;12.73;;;9.30;;
1682;SDS011;13252;53.596;10.060;2022-12-11T00:48:47;12.73;;;8.40;;
1682;SDS011;13252;53.596;10.060;2022-12-11T00:51:15;11.50;;;8.77;;
1682;SDS011;13252;53.596;10.060;2022-12-11T00:53:43;18.33;;;9.43;;
1682;SDS011;13252;53.596;10.060;2022-12-11T00:56:12;12.20;;;8.37;;
1682;SDS011;13252;53.596;10.060;2022-12-11T00:58:42;15.30;;;8.40;;
1682;SDS011;13252;53.596;10.060;2022-12-11T01:01:11;14.57;;;9.97;;
1682;SDS011;13252;53.596;10.060;2022-12-11T01:03:40;13.63;;;9.73;;
1682;SDS011;13252;53.596;10.060;2022-12-11T01:06:10;12.00;;;8.40;;
1682;SDS011;13252;53.596;10.060;2022-12-11T01:08:40;14.00;;;9.63;;
1682;SDS011;13252;53.596;10.060;2022-12-11T01:11:08;13.30;;;9.40;;
1682;SDS011;13252;53.596;10.060;2022-12-11T01:13:36;11.77;;;8.50;;
1682;SDS011;13252;53.596;10.060;2022-12-11T01:16:06;16.10;;;10.10;;
1682;SDS011;13252;53.596;10.060;2022-12-11T01:18:35;14.77;;;9.10;;
1682;SDS011;13252;53.596;10.060;2022-12-11T01:21:06;17.43;;;9.30;;
1682;SDS011;13252;53.596;10.060;2022-12-11T01:23:35;14.20;;;8.77;;
1682;SDS011;13252;53.596;10.060;2022-12-11T01:26:03;12.07;;;9.23;;
1682;SDS011;13252;53.596;10.060;2022-12-11T01:28:32;14.50;;;10.17;;
1682;SDS011;13252;53.596;10.060;2022-12-11T01:31:00;12.90;;;8.93;;
1682;SDS011;13252;53.596;10.060;2022-12-11T01:33:29;14.90;;;9.17;;
1682;SDS011;13252;53.596;10.060;2022-12-11T01:35:57;16.03;;;10.47;;
1682;SDS011;13252;53.596;10.060;2022-12-11T01:38:25;16.67;;;10.83;;
1682;SDS011;13252;53.596;10.060;2022-12-11T01:40:53;15.77;;;11.07;;
1682;SDS011;13252;53.596;10.060;2022-12-11T01:43:21;14.83;;;10.80;;
1682;SDS011;13252;53.596;10.060;2022-12-11T01:45:48;14.50;;;10.60;;
1682;SDS011;13252;53.596;10.060;2022-12-11T01:48:17;17.70;;;11.00;;
1682;SDS011;13252;53.596;10.060;2022-12-11T01:50:48;16.83;;;10.30;;
1682;SDS011;13252;53.596;10.060;2022-12-11T01:53:18;12.03;;;9.33;;
1682;SDS011;13252;53.596;10.060;2022-12-11T01:55:49;13.93;;;9.77;;
1682;SDS011;13252;53.596;10.060;2022-12-11T01:58:19;15.57;;;9.67;;
1682;SDS011;13252;53.596;10.060;2022-12-11T02:00:48;15.70;;;10.77;;
1682;SDS011;13252;53.596;10.060;2022-12-11T02:03:17;15.27;;;9.03;;
1682;SDS011;13252;53.596;10.060;2022-12-11T02:05:45;14.63;;;10.57;;
1682;SDS011;13252;53.596;10.060;2022-12-11T02:08:14;16.27;;;10.03;;
1682;SDS011;13252;53.596;10.060;2022-12-11T02:10:46;16.13;;;10.67;;
1682;SDS011;13252;53.596;10.060;2022-12-11T02:13:18;17.00;;;11.03;;
1682;SDS011;13252;53.596;10.060;2022-12-11T02:15:49;16.90;;;11.90;;
1682;SDS011;13252;53.596;10.060;2022-12-11T02:18:22;16.77;;;11.40;;
1682;SDS011;13252;53.596;10.060;2022-12-11T02:20:54;15.93;;;11.10;;
1682;SDS011;13252;53.596;10.060;2022-12-11T02:23:31;15.90;;;12.00;;
1682;SDS011;13252;53.596;10.060;2022-12-11T02:26:08;15.30;;;11.10;;
1682;SDS011;13252;53.596;10.060;2022-12-11T02:28:44;17.00;;;10.20;;
1682;SDS011;13252;53.596;10.060;2022-12-11T02:31:15;16.23;;;10.80;;
1682;SDS011;13252;53.596;10.060;2022-12-11T02:33:48;16.00;;;10.60;;
1682;SDS011;13252;53.596;10.060;2022-12-11T02:36:19;16.77;;;11.23;;
1682;SDS011;13252;53.596;10.060;2022-12-11T02:38:48;18.77;;;11.53;;
1682;SDS011;13252;53.596;10.060;2022-12-11T02:41:19;16.23;;;11.80;;
1682;SDS011;13252;53.596;10.060;2022-12-11T02:43:49;17.70;;;11.87;;
1682;SDS011;13252;53.596;10.060;2022-12-11T02:46:17;17.23;;;12.00;;
1682;SDS011;13252;53.596;10.060;2022-12-11T02:48:47;18.17;;;11.43;;
1682;SDS011;13252;53.596;10.060;2022-12-11T02:51:17;17.07;;;11.43;;
1682;SDS011;13252;53.596;10.060;2022-12-11T02:53:48;20.80;;;11.90;;
1682;SDS011;13252;53.596;10.060;2022-12-11T02:56:18;16.50;;;11.03;;
1682;SDS011;13252;53.596;10.060;2022-12-11T02:58:47;16.57;;;11.47;;
1682;SDS011;13252;53.596;10.060;2022-12-11T03:01:24;18.00;;;13.20;;
1682;SDS011;13252;53.596;10.060;2022-12-11T03:03:52;14.43;;;10.20;;
1682;SDS011;13252;53.596;10.060;2022-12-11T03:06:21;16.93;;;10.20;;
1682;SDS011;13252;53.596;10.060;2022-12-11T03:08:51;13.03;;;9.80;;
1682;SDS011;13252;53.596;10.060;2022-12-11T03:11:18;13.73;;;9.40;;
1682;SDS011;13252;53.596;10.060;2022-12-11T03:13:46;19.37;;;12.03;;
1682;SDS011;13252;53.596;10.060;2022-12-11T03:16:17;14.40;;;10.13;;
1682;SDS011;13252;53.596;10.060;2022-12-11T03:18:51;16.30;;;10.13;;
1682;SDS011;13252;53.596;10.060;2022-12-11T03:21:23;17.07;;;11.37;;
1682;SDS011;13252;53.596;10.060;2022-12-11T03:23:56;18.13;;;11.07;;
1682;SDS011;13252;53.596;10.060;2022-12-11T03:26:28;17.10;;;10.77;;
1682;SDS011;13252;53.596;10.060;2022-12-11T03:28:57;16.70;;;12.10;;
1682;SDS011;13252;53.596;10.060;2022-12-11T03:31:28;16.60;;;10.13;;
1682;SDS011;13252;53.596;10.060;2022-12-11T03:33:59;15.10;;;10.80;;
1682;SDS011;13252;53.596;10.060;2022-12-11T03:36:29;12.53;;;9.53;;
1682;SDS011;13252;53.596;10.060;2022-12-11T03:38:58;16.83;;;10.97;;
1682;SDS011;13252;53.596;10.060;2022-12-11T03:41:28;16.97;;;12.57;;
1682;SDS011;13252;53.596;10.060;2022-12-11T03:43:57;18.37;;;10.83;;
1682;SDS011;13252;53.596;10.060;2022-12-11T03:46:26;16.60;;;11.03;;
1682;SDS011;13252;53.596;10.060;2022-12-11T03:48:58;17.90;;;10.70;;
1682;SDS011;13252;53.596;10.060;2022-12-11T03:51:27;17.90;;;13.10;;
1682;SDS011;13252;53.596;10.060;2022-12-11T03:53:55;17.57;;;12.03;;
1682;SDS011;13252;53.596;10.060;2022-12-11T03:56:24;18.77;;;11.60;;
1682;SDS011;13252;53.596;10.060;2022-12-11T03:58:53;16.73;;;11.37;;
1682;SDS011;13252;53.596;10.060;2022-12-11T04:01:21;17.80;;;12.20;;
1682;SDS011;13252;53.596;10.060;2022-12-11T04:03:50;17.93;;;11.87;;
1682;SDS011;13252;53.596;10.060;2022-12-11T04:06:18;15.87;;;10.70;;
1682;SDS011;13252;53.596;10.060;2022-12-11T04:08:46;15.07;;;11.53;;
1682;SDS011;13252;53.596;10.060;2022-12-11T04:11:13;18.50;;;11.70;;
1682;SDS011;13252;53.596;10.060;2022-12-11T04:13:59;16.03;;;11.60;;
1682;SDS011;13252;53.596;10.060;2022-12-11T04:16:44;20.27;;;13.50;;
1682;SDS011;13252;53.596;10.060;2022-12-11T04:19:13;17.20;;;12.40;;
1682;SDS011;13252;53.596;10.060;2022-12-11T04:21:58;19.63;;;12.70;;
1682;SDS011;13252;53.596;10.060;2022-12-11T04:24:59;15.90;;;11.87;;
1682;SDS011;13252;53.596;10.060;2022-12-11T04:27:27;19.00;;;12.00;;
1682;SDS011;13252;53.596;10.060;2022-12-11T04:30:13;24.00;;;14.93;;
1682;SDS011;13252;53.596;10.060;2022-12-11T04:32:42;20.03;;;14.07;;
1682;SDS011;13252;53.596;10.060;2022-12-11T04:35:12;18.03;;;11.77;;
1682;SDS011;13252;53.596;10.060;2022-12-11T04:37:40;20.30;;;13.20;;
1682;SDS011;13252;53.596;10.060;2022-12-11T04:40:09;16.70;;;11.73;;
1682;SDS011;13252;53.596;10.060;2022-12-11T04:42:38;19.13;;;13.73;;
1682;SDS011;13252;53.596;10.060;2022-12-11T04:45:06;17.70;;;12.83;;
1682;SDS011;13252;53.596;10.060;2022-12-11T04:47:36;16.53;;;12.07;;
1682;SDS011;13252;53.596;10.060;2022-12-11T04:50:06;17.70;;;11.33;;
1682;SDS011;13252;53.596;10.060;2022-12-11T04:52:36;18.20;;;12.10;;
1682;SDS011;13252;53.596;10.060;2022-12-11T04:55:04;16.73;;;11.53;;
1682;SDS011;13252;53.596;10.060;2022-12-11T04:57:32;18.87;;;12.17;;
1682;SDS011;13252;53.596;10.060;2022-12-11T05:00:00;17.10;;;11.60;;
1682;SDS011;13252;53.596;10.060;2022-12-11T05:02:29;16.60;;;10.43;;
1682;SDS011;13252;53.596;10.060;2022-12-11T05:05:01;16.57;;;10.70;;
1682;SDS011;13252;53.596;10.060;2022-12-11T05:07:29;15.73;;;11.93;;
1682;SDS011;13252;53.596;10.060;2022-12-11T05:09:58;17.37;;;12.23;;
1682;SDS011;13252;53.596;10.060;2022-12-11T05:12:26;18.20;;;11.67;;
1682;SDS011;13252;53.596;10.060;2022-12-11T05:14:54;18.00;;;12.43;;
1682;SDS011;13252;53.596;10.060;2022-12-11T05:17:21;17.47;;;12.07;;
1682;SDS011;13252;53.596;10.060;2022-12-11T05:19:49;20.20;;;13.20;;
1682;SDS011;13252;53.596;10.060;2022-12-11T05:22:18;18.40;;;12.03;;
1682;SDS011;13252;53.596;10.060;2022-12-11T05:24:45;18.20;;;12.80;;
1682;SDS011;13252;53.596;10.060;2022-12-11T05:27:14;19.47;;;12.03;;
1682;SDS011;13252;53.596;10.060;2022-12-11T05:29:42;17.67;;;13.50;;
1682;SDS011;13252;53.596;10.060;2022-12-11T05:32:09;18.60;;;12.03;;
1682;SDS011;13252;53.596;10.060;2022-12-11T05:34:37;19.97;;;12.40;;
1682;SDS011;13252;53.596;10.060;2022-12-11T05:37:05;19.40;;;12.70;;
1682;SDS011;13252;53.596;10.060;2022-12-11T05:39:33;20.47;;;12.60;;
1682;SDS011;13252;53.596;10.060;2022-12-11T05:42:01;19.90;;;13.53;;
1682;SDS011;13252;53.596;10.060;2022-12-11T05:44:30;20.30;;;13.77;;
1682;SDS011;13252;53.596;10.060;2022-12-11T05:46:57;18.80;;;13.40;;
1682;SDS011;13252;53.596;10.060;2022-12-11T05:49:25;19.70;;;13.00;;
1682;SDS011;13252;53.596;10.060;2022-12-11T05:51:56;18.67;;;13.40;;
1682;SDS011;13252;53.596;10.060;2022-12-11T05:54:24;21.30;;;13.97;;
1682;SDS011;13252;53.596;10.060;2022-12-11T05:56:52;24.73;;;14.23;;
1682;SDS011;13252;53.596;10.060;2022-12-11T05:59:19;22.93;;;14.20;;
1682;SDS011;13252;53.596;10.060;2022-12-11T06:01:48;17.60;;;12.23;;
1682;SDS011;13252;53.596;10.060;2022-12-11T06:04:16;21.30;;;14.60;;
1682;SDS011;13252;53.596;10.060;2022-12-11T06:06:44;21.37;;;12.80;;
1682;SDS011;13252;53.596;10.060;2022-12-11T06:09:12;20.60;;;14.00;;
1682;SDS011;13252;53.596;10.060;2022-12-11T06:11:41;20.40;;;14.00;;
1682;SDS011;13252;53.596;10.060;2022-12-11T06:14:09;20.30;;;12.17;;
1682;SDS011;13252;53.596;10.060;2022-12-11T06:16:39;19.53;;;13.47;;
1682;SDS011;13252;53.596;10.060;2022-12-11T06:19:12;20.87;;;13.50;;
1682;SDS011;13252;53.596;10.060;2022-12-11T06:21:40;22.37;;;13.60;;
1682;SDS011;13252;53.596;10.060;2022-12-11T06:24:09;21.60;;;14.40;;
1682;SDS011;13252;53.596;10.060;2022-12-11T06:26:37;20.50;;;13.93;;
1682;SDS011;13252;53.596;10.060;2022-12-11T06:29:05;20.10;;;11.80;;
1682;SDS011;13252;53.596;10.060;2022-12-11T06:31:38;19.40;;;13.27;;
1682;SDS011;13252;53.596;10.060;2022-12-11T06:34:06;21.27;;;14.03;;
1682;SDS011;13252;53.596;10.060;2022-12-11T06:36:36;19.60;;;13.47;;
1682;SDS011;13252;53.596;10.060;2022-12-11T06:39:03;20.77;;;13.33;;
1682;SDS011;13252;53.596;10.060;2022-12-11T06:41:31;20.10;;;12.60;;
1682;SDS011;13252;53.596;10.060;2022-12-11T06:43:59;20.90;;;13.50;;
1682;SDS011;13252;53.596;10.060;2022-12-11T06:46:26;21.23;;;13.40;;
1682;SDS011;13252;53.596;10.060;2022-12-11T06:48:54;17.00;;;12.07;;
1682;SDS011;13252;53.596;10.060;2022-12-11T06:51:22;16.53;;;11.67;;
1682;SDS011;13252;53.596;10.060;2022-12-11T06:53:51;22.73;;;14.20;;
1682;SDS011;13252;53.596;10.060;2022-12-11T06:56:20;23.20;;;13.63;;
1682;SDS011;13252;53.596;10.060;2022-12-11T06:58:49;20.43;;;13.80;;
1682;SDS011;13252;53.596;10.060;2022-12-11T07:01:18;19.90;;;13.70;;
1682;SDS011;13252;53.596;10.060;2022-12-11T07:03:47;20.70;;;12.97;;
1682;SDS011;13252;53.596;10.060;2022-12-11T07:06:15;24.63;;;14.37;;
1682;SDS011;13252;53.596;10.060;2022-12-11T07:08:43;23.17;;;14.27;;
1682;SDS011;13252;53.596;10.060;2022-12-11T07:11:16;22.43;;;13.80;;
1682;SDS011;13252;53.596;10.060;2022-12-11T07:13:45;21.47;;;14.43;;
1682;SDS011;13252;53.596;10.060;2022-12-11T07:16:13;23.17;;;14.30;;
1682;SDS011;13252;53.596;10.060;2022-12-11T07:18:43;20.63;;;13.60;;
1682;SDS011;13252;53.596;10.060;2022-12-11T07:21:13;23.93;;;14.13;;
1682;SDS011;13252;53.596;10.060;2022-12-11T07:23:41;19.90;;;13.80;;
1682;SDS011;13252;53.596;10.060;2022-12-11T07:26:10;20.90;;;13.57;;
1682;SDS011;13252;53.596;10.060;2022-12-11T07:28:41;20.60;;;14.70;;
1682;SDS011;13252;53.596;10.060;2022-12-11T07:31:10;21.40;;;14.03;;
1682;SDS011;13252;53.596;10.060;2022-12-11T07:33:39;23.20;;;15.97;;
1682;SDS011;13252;53.596;10.060;2022-12-11T07:36:08;27.03;;;16.60;;
1682;SDS011;13252;53.596;10.060;2022-12-11T07:38:37;21.13;;;14.90;;
1682;SDS011;13252;53.596;10.060;2022-12-11T07:41:06;24.53;;;15.57;;
1682;SDS011;13252;53.596;10.060;2022-12-11T07:43:35;20.87;;;14.40;;
1682;SDS011;13252;53.596;10.060;2022-12-11T07:46:06;21.73;;;14.70;;
1682;SDS011;13252;53.596;10.060;2022-12-11T07:48:35;27.20;;;16.53;;
1682;SDS011;13252;53.596;10.060;2022-12-11T07:51:07;31.63;;;16.40;;
1682;SDS011;13252;53.596;10.060;2022-12-11T07:53:35;23.43;;;13.93;;
1682;SDS011;13252;53.596;10.060;2022-12-11T07:56:03;21.93;;;14.70;;
1682;SDS011;13252;53.596;10.060;2022-12-11T07:58:31;24.87;;;14.97;;
1682;SDS011;13252;53.596;10.060;2022-12-11T08:00:59;22.93;;;14.33;;
1682;SDS011;13252;53.596;10.060;2022-12-11T08:03:28;24.33;;;15.60;;
1682;SDS011;13252;53.596;10.060;2022-12-11T08:05:56;29.70;;;15.80;;
1682;SDS011;13252;53.596;10.060;2022-12-11T08:08:23;22.80;;;14.20;;
1682;SDS011;13252;53.596;10.060;2022-12-11T08:10:51;25.00;;;15.07;;
1682;SDS011;13252;53.596;10.060;2022-12-11T08:13:19;24.03;;;15.70;;
1682;SDS011;13252;53.596;10.060;2022-12-11T08:15:47;23.53;;;15.70;;
1682;SDS011;13252;53.596;10.060;2022-12-11T08:18:15;23.47;;;14.17;;
1682;SDS011;13252;53.596;10.060;2022-12-11T08:20:44;22.67;;;15.10;;
1682;SDS011;13252;53.596;10.060;2022-12-11T08:23:12;22.17;;;13.50;;
1682;SDS011;13252;53.596;10.060;2022-12-11T08:25:40;24.67;;;15.43;;
1682;SDS011;13252;53.596;10.060;2022-12-11T08:28:07;27.53;;;17.37;;
1682;SDS011;13252;53.596;10.060;2022-12-11T08:30:37;24.70;;;14.77;;
1682;SDS011;13252;53.596;10.060;2022-12-11T08:33:05;25.17;;;15.57;;
1682;SDS011;13252;53.596;10.060;2022-12-11T08:35:37;28.57;;;15.73;;
1682;SDS011;13252;53.596;10.060;2022-12-11T08:38:07;26.23;;;15.20;;
1682;SDS011;13252;53.596;10.060;2022-12-11T08:40:34;25.03;;;16.03;;
1682;SDS011;13252;53.596;10.060;2022-12-11T08:43:02;24.67;;;14.93;;
1682;SDS011;13252;53.596;10.060;2022-12-11T08:45:31;24.50;;;16.53;;
1682;SDS011;13252;53.596;10.060;2022-12-11T08:47:59;23.60;;;15.43;;
1682;SDS011;13252;53.596;10.060;2022-12-11T08:50:26;24.10;;;15.70;;
1682;SDS011;13252;53.596;10.060;2022-12-11T08:52:54;19.77;;;14.30;;
1682;SDS011;13252;53.596;10.060;2022-12-11T08:55:23;23.87;;;14.90;;
1682;SDS011;13252;53.596;10.060;2022-12-11T08:57:51;20.53;;;13.50;;
1682;SDS011;13252;53.596;10.060;2022-12-11T09:00:19;23.37;;;13.77;;
1682;SDS011;13252;53.596;10.060;2022-12-11T09:02:47;22.70;;;14.47;;
1682;SDS011;13252;53.596;10.060;2022-12-11T09:05:15;29.23;;;15.53;;
1682;SDS011;13252;53.596;10.060;2022-12-11T09:07:42;24.03;;;15.03;;
1682;SDS011;13252;53.596;10.060;2022-12-11T09:10:10;25.03;;;15.13;;
1682;SDS011;13252;53.596;10.060;2022-12-11T09:12:39;24.07;;;14.93;;
1682;SDS011;13252;53.596;10.060;2022-12-11T09:15:08;25.50;;;14.60;;
1682;SDS011;13252;53.596;10.060;2022-12-11T09:17:36;21.40;;;14.00;;
1682;SDS011;13252;53.596;10.060;2022-12-11T09:20:04;27.17;;;15.77;;
1682;SDS011;13252;53.596;10.060;2022-12-11T09:22:33;24.33;;;15.07;;
1682;SDS011;13252;53.596;10.060;2022-12-11T09:25:00;24.77;;;14.40;;
1682;SDS011;13252;53.596;10.060;2022-12-11T09:27:28;23.07;;;15.33;;
1682;SDS011;13252;53.596;10.060;2022-12-11T09:29:57;26.10;;;15.50;;
1682;SDS011;13252;53.596;10.060;2022-12-11T09:32:25;26.60;;;16.57;;
1682;SDS011;13252;53.596;10.060;2022-12-11T09:34:53;27.83;;;16.33;;
1682;SDS011;13252;53.596;10.060;2022-12-11T09:37:20;23.90;;;14.83;;
1682;SDS011;13252;53.596;10.060;2022-12-11T09:39:48;26.63;;;16.53;;
1682;SDS011;13252;53.596;10.060;2022-12-11T09:42:17;24.30;;;15.13;;
1682;SDS011;13252;53.596;10.060;2022-12-11T09:44:48;25.40;;;15.60;;
1682;SDS011;13252;53.596;10.060;2022-12-11T09:47:20;30.50;;;14.33;;
1682;SDS011;13252;53.596;10.060;2022-12-11T09:49:52;22.90;;;13.53;;
1682;SDS011;13252;53.596;10.060;2022-12-11T09:52:27;21.10;;;13.90;;
1682;SDS011;13252;53.596;10.060;2022-12-11T09:55:00;20.60;;;13.77;;
1682;SDS011;13252;53.596;10.060;2022-12-11T09:57:36;21.47;;;14.07;;
1682;SDS011;13252;53.596;10.060;2022-12-11T10:00:13;21.00;;;11.90;;
1682;SDS011;13252;53.596;10.060;2022-12-11T10:02:48;23.90;;;14.60;;
1682;SDS011;13252;53.596;10.060;2022-12-11T10:05:28;20.00;;;12.47;;
1682;SDS011;13252;53.596;10.060;2022-12-11T10:07:59;21.73;;;12.43;;
1682;SDS011;13252;53.596;10.060;2022-12-11T10:10:33;18.47;;;13.07;;
1682;SDS011;13252;53.596;10.060;2022-12-11T10:13:06;20.77;;;13.03;;
1682;SDS011;13252;53.596;10.060;2022-12-11T10:15:42;19.47;;;12.40;;
1682;SDS011;13252;53.596;10.060;2022-12-11T10:18:18;22.67;;;14.17;;
1682;SDS011;13252;53.596;10.060;2022-12-11T10:20:49;22.93;;;12.93;;
1682;SDS011;13252;53.596;10.060;2022-12-11T10:23:18;20.40;;;13.50;;
1682;SDS011;13252;53.596;10.060;2022-12-11T10:25:49;20.73;;;12.20;;
1682;SDS011;13252;53.596;10.060;2022-12-11T10:28:18;23.57;;;13.63;;
1682;SDS011;13252;53.596;10.060;2022-12-11T10:30:47;21.00;;;12.90;;
1682;SDS011;13252;53.596;10.060;2022-12-11T10:33:20;18.10;;;11.93;;
1682;SDS011;13252;53.596;10.060;2022-12-11T10:35:50;18.83;;;11.60;;
1682;SDS011;13252;53.596;10.060;2022-12-11T10:38:20;21.23;;;13.70;;
1682;SDS011;13252;53.596;10.060;2022-12-11T10:40:51;15.60;;;11.93;;
1682;SDS011;13252;53.596;10.060;2022-12-11T10:43:19;22.50;;;12.80;;
1682;SDS011;13252;53.596;10.060;2022-12-11T10:45:51;17.60;;;10.90;;
1682;SDS011;13252;53.596;10.060;2022-12-11T10:48:20;18.80;;;11.40;;
1682;SDS011;13252;53.596;10.060;2022-12-11T10:50:56;19.07;;;12.17;;
1682;SDS011;13252;53.596;10.060;2022-12-11T10:53:25;18.60;;;11.20;;
1682;SDS011;13252;53.596;10.060;2022-12-11T10:55:53;18.30;;;11.10;;
1682;SDS011;13252;53.596;10.060;2022-12-11T10:58:24;21.30;;;13.73;;
1682;SDS011;13252;53.596;10.060;2022-12-11T11:01:01;22.30;;;12.33;;
1682;SDS011;13252;53.596;10.060;2022-12-11T11:03:33;15.87;;;10.70;;
1682;SDS011;13252;53.596;10.060;2022-12-11T11:06:06;19.40;;;12.33;;
1682;SDS011;13252;53.596;10.060;2022-12-11T11:08:41;20.50;;;11.90;;
1682;SDS011;13252;53.596;10.060;2022-12-11T11:11:21;18.03;;;12.73;;
1682;SDS011;13252;53.596;10.060;2022-12-11T11:13:51;37.10;;;12.77;;
1682;SDS011;13252;53.596;10.060;2022-12-11T11:16:19;17.67;;;11.10;;
1682;SDS011;13252;53.596;10.060;2022-12-11T11:18:51;15.77;;;10.27;;
1682;SDS011;13252;53.596;10.060;2022-12-11T11:21:20;16.07;;;11.30;;
1682;SDS011;13252;53.596;10.060;2022-12-11T11:23:49;18.00;;;11.43;;
1682;SDS011;13252;53.596;10.060;2022-12-11T11:26:19;16.53;;;10.97;;
1682;SDS011;13252;53.596;10.060;2022-12-11T11:28:48;25.43;;;12.83;;
1682;SDS011;13252;53.596;10.060;2022-12-11T11:31:17;18.30;;;11.50;;
1682;SDS011;13252;53.596;10.060;2022-12-11T11:33:48;40.47;;;12.67;;
1682;SDS011;13252;53.596;10.060;2022-12-11T11:36:23;17.67;;;11.47;;
1682;SDS011;13252;53.596;10.060;2022-12-11T11:41:45;18.00;;;11.67;;
1682;SDS011;13252;53.596;10.060;2022-12-11T11:44:18;18.90;;;10.60;;
1682;SDS011;13252;53.596;10.060;2022-12-11T11:46:48;20.77;;;13.20;;
1682;SDS011;13252;53.596;10.060;2022-12-11T11:49:23;28.00;;;13.37;;
1682;SDS011;13252;53.596;10.060;2022-12-11T11:51:55;43.70;;;13.80;;
1682;SDS011;13252;53.596;10.060;2022-12-11T11:54:27;18.87;;;11.63;;
1682;SDS011;13252;53.596;10.060;2022-12-11T11:56:57;22.33;;;13.53;;
1682;SDS011;13252;53.596;10.060;2022-12-11T11:59:27;17.70;;;12.50;;
1682;SDS011;13252;53.596;10.060;2022-12-11T12:01:57;18.13;;;11.20;;
1682;SDS011;13252;53.596;10.060;2022-12-11T12:04:28;23.17;;;12.00;;
1682;SDS011;13252;53.596;10.060;2022-12-11T12:07:04;18.70;;;12.03;;
1682;SDS011;13252;53.596;10.060;2022-12-11T12:09:40;22.80;;;12.13;;
1682;SDS011;13252;53.596;10.060;2022-12-11T12:12:15;23.07;;;12.80;;
1682;SDS011;13252;53.596;10.060;2022-12-11T12:14:56;19.80;;;11.60;;
1682;SDS011;13252;53.596;10.060;2022-12-11T12:17:30;18.80;;;12.43;;
1682;SDS011;13252;53.596;10.060;2022-12-11T12:20:08;28.33;;;14.57;;
1682;SDS011;13252;53.596;10.060;2022-12-11T12:22:50;19.90;;;12.57;;
1682;SDS011;13252;53.596;10.060;2022-12-11T12:25:25;21.13;;;11.50;;
1682;SDS011;13252;53.596;10.060;2022-12-11T12:27:58;18.03;;;11.77;;
1682;SDS011;13252;53.596;10.060;2022-12-11T12:30:33;22.93;;;13.40;;
1682;SDS011;13252;53.596;10.060;2022-12-11T12:33:11;16.57;;;11.47;;
1682;SDS011;13252;53.596;10.060;2022-12-11T12:35:48;24.63;;;14.00;;
1682;SDS011;13252;53.596;10.060;2022-12-11T12:38:20;22.50;;;13.03;;
1682;SDS011;13252;53.596;10.060;2022-12-11T12:40:52;20.80;;;12.67;;
1682;SDS011;13252;53.596;10.060;2022-12-11T12:43:38;28.50;;;12.90;;
1682;SDS011;13252;53.596;10.060;2022-12-11T12:46:39;28.37;;;12.17;;
1682;SDS011;13252;53.596;10.060;2022-12-11T12:49:13;29.37;;;11.97;;
1682;SDS011;13252;53.596;10.060;2022-12-11T12:51:44;24.23;;;13.93;;
1682;SDS011;13252;53.596;10.060;2022-12-11T12:54:13;27.93;;;13.13;;
1682;SDS011;13252;53.596;10.060;2022-12-11T12:56:42;23.93;;;12.80;;
1682;SDS011;13252;53.596;10.060;2022-12-11T12:59:19;23.83;;;12.60;;
1682;SDS011;13252;53.596;10.060;2022-12-11T13:01:48;21.23;;;12.87;;
1682;SDS011;13252;53.596;10.060;2022-12-11T13:04:26;58.87;;;13.33;;
1682;SDS011;13252;53.596;10.060;2022-12-11T13:07:18;20.90;;;13.07;;
1682;SDS011;13252;53.596;10.060;2022-12-11T13:09:55;18.30;;;13.50;;
1682;SDS011;13252;53.596;10.060;2022-12-11T13:12:30;19.10;;;13.63;;
1682;SDS011;13252;53.596;10.060;2022-12-11T13:14:59;20.10;;;11.87;;
1682;SDS011;13252;53.596;10.060;2022-12-11T13:17:34;19.00;;;11.30;;
1682;SDS011;13252;53.596;10.060;2022-12-11T13:20:14;37.73;;;12.50;;
1682;SDS011;13252;53.596;10.060;2022-12-11T13:22:49;19.60;;;12.80;;
1682;SDS011;13252;53.596;10.060;2022-12-11T13:25:20;21.43;;;12.20;;
1682;SDS011;13252;53.596;10.060;2022-12-11T13:27:50;24.20;;;13.40;;
1682;SDS011;13252;53.596;10.060;2022-12-11T13:30:20;25.23;;;14.30;;
1682;SDS011;13252;53.596;10.060;2022-12-11T13:32:57;24.70;;;14.20;;
1682;SDS011;13252;53.596;10.060;2022-12-11T13:35:28;22.30;;;13.33;;
1682;SDS011;13252;53.596;10.060;2022-12-11T13:38:00;26.30;;;12.40;;
1682;SDS011;13252;53.596;10.060;2022-12-11T13:40:32;19.90;;;12.80;;
1682;SDS011;13252;53.596;10.060;2022-12-11T13:43:04;18.37;;;12.70;;
1682;SDS011;13252;53.596;10.060;2022-12-11T13:45:36;19.30;;;13.00;;
1682;SDS011;13252;53.596;10.060;2022-12-11T13:48:09;26.50;;;12.60;;
1682;SDS011;13252;53.596;10.060;2022-12-11T13:50:44;17.20;;;11.77;;
1682;SDS011;13252;53.596;10.060;2022-12-11T13:53:14;18.70;;;12.70;;
1682;SDS011;13252;53.596;10.060;2022-12-11T13:55:43;28.30;;;14.40;;
1682;SDS011;13252;53.596;10.060;2022-12-11T13:58:14;18.87;;;12.43;;
1682;SDS011;13252;53.596;10.060;2022-12-11T14:00:51;25.03;;;12.87;;
1682;SDS011;13252;53.596;10.060;2022-12-11T14:03:25;22.70;;;13.77;;
1682;SDS011;13252;53.596;10.060;2022-12-11T14:05:53;25.57;;;12.33;;
1682;SDS011;13252;53.596;10.060;2022-12-11T14:08:23;20.43;;;12.27;;
1682;SDS011;13252;53.596;10.060;2022-12-11T14:10:55;19.70;;;12.33;;
1682;SDS011;13252;53.596;10.060;2022-12-11T14:13:23;21.00;;;14.30;;
1682;SDS011;13252;53.596;10.060;2022-12-11T14:15:52;28.00;;;13.20;;
1682;SDS011;13252;53.596;10.060;2022-12-11T14:18:21;20.37;;;12.90;;
1682;SDS011;13252;53.596;10.060;2022-12-11T14:20:53;20.67;;;12.20;;
1682;SDS011;13252;53.596;10.060;2022-12-11T14:23:24;20.17;;;12.27;;
1682;SDS011;13252;53.596;10.060;2022-12-11T14:25:53;23.50;;;12.80;;
1682;SDS011;13252;53.596;10.060;2022-12-11T14:28:22;21.20;;;12.47;;
1682;SDS011;13252;53.596;10.060;2022-12-11T14:30:53;18.27;;;12.03;;
1682;SDS011;13252;53.596;10.060;2022-12-11T14:33:24;20.47;;;12.87;;
1682;SDS011;13252;53.596;10.060;2022-12-11T14:35:53;20.77;;;12.90;;
1682;SDS011;13252;53.596;10.060;2022-12-11T14:38:24;26.27;;;14.27;;
1682;SDS011;13252;53.596;10.060;2022-12-11T14:40:55;35.47;;;15.07;;
1682;SDS011;13252;53.596;10.060;2022-12-11T14:43:25;19.70;;;12.50;;
1682;SDS011;13252;53.596;10.060;2022-12-11T14:45:56;21.23;;;14.23;;